Time;durP1;ratioP1;P1;durP2;ratioP2;P2;SDS_P1;SDS_P2;PMS_P1;PMS_P2;Temp;Humidity;BMP_temperature;BMP_pressure;BME280_temperature;BME280_humidity;BME280_pressure;Samples;Min_cycle;Max_cycle;Signal;HPM_P1;HPM_P2
2023/03/28 00:00:43;;;;;;;3.40;2.50;;;1.60;99.90;;;;;;5007994;28;20535;-56
2023/03/28 00:03:13;;;;;;;4.27;2.60;;;1.60;99.90;;;;;;5009985;28;20486;-55
2023/03/28 00:05:40;;;;;;;2.80;2.30;;;1.60;99.90;;;;;;5011816;28;20848;-55
2023/03/28 00:08:07;;;;;;;2.20;2.00;;;1.50;99.90;;;;;;5011646;28;20478;-56
2023/03/28 00:10:36;;;;;;;3.03;2.23;;;1.50;99.90;;;;;;5008907;28;20451;-55
2023/03/28 00:13:03;;;;;;;9.60;6.80;;;1.70;99.90;;;;;;5014171;28;20535;-55
2023/03/28 00:15:30;;;;;;;4.83;3.63;;;1.60;99.90;;;;;;5029030;28;20527;-55
2023/03/28 00:18:00;;;;;;;2.07;1.87;;;1.60;99.90;;;;;;5014117;28;20483;-55
2023/03/28 00:20:28;;;;;;;2.57;1.90;;;1.70;99.90;;;;;;5013988;28;20825;-55
2023/03/28 00:22:55;;;;;;;4.07;2.30;;;1.60;99.90;;;;;;5013828;28;20592;-55
2023/03/28 00:25:22;;;;;;;3.50;2.50;;;1.30;99.90;;;;;;5015846;28;21017;-56
2023/03/28 00:27:50;;;;;;;2.47;2.23;;;1.40;99.90;;;;;;5025712;28;21033;-55
2023/03/28 00:30:17;;;;;;;3.63;2.17;;;1.40;99.90;;;;;;5013756;28;20530;-55
2023/03/28 00:32:44;;;;;;;3.10;2.40;;;1.60;99.90;;;;;;5013985;28;21013;-55
2023/03/28 00:35:11;;;;;;;2.63;2.43;;;1.30;99.90;;;;;;5013712;28;20869;-55
2023/03/28 00:37:40;;;;;;;4.13;2.37;;;1.40;99.90;;;;;;5013492;28;20473;-55
2023/03/28 00:40:10;;;;;;;2.40;2.17;;;1.40;99.90;;;;;;5013592;28;20452;-55
2023/03/28 00:42:41;;;;;;;2.67;2.10;;;1.30;99.90;;;;;;5013783;28;20471;-55
2023/03/28 00:45:12;;;;;;;1.93;1.73;;;1.30;99.90;;;;;;5064935;23;20496;-49
2023/03/28 00:47:43;;;;;;;1.97;1.63;;;1.40;99.90;;;;;;5016623;28;20466;-50
2023/03/28 00:50:15;;;;;;;2.40;2.13;;;1.20;99.90;;;;;;5005735;28;20967;-50
2023/03/28 00:52:48;;;;;;;2.53;1.80;;;1.20;99.90;;;;;;4996124;28;20445;-50
2023/03/28 00:55:19;;;;;;;2.07;1.83;;;1.20;99.90;;;;;;4995219;28;21007;-49
2023/03/28 00:57:49;;;;;;;2.27;1.87;;;1.30;99.90;;;;;;5015440;28;20444;-50
2023/03/28 01:00:19;;;;;;;2.53;1.73;;;1.30;99.90;;;;;;5016683;28;20932;-50
2023/03/28 01:02:51;;;;;;;2.20;1.90;;;1.30;99.90;;;;;;5016500;28;20453;-50
2023/03/28 01:05:21;;;;;;;2.70;2.00;;;1.20;99.90;;;;;;5015807;28;20503;-50
2023/03/28 01:07:53;;;;;;;3.90;2.80;;;1.10;99.90;;;;;;5015482;28;20542;-49
2023/03/28 01:10:21;;;;;;;5.17;3.07;;;1.10;99.90;;;;;;5016848;28;20448;-49
2023/03/28 01:12:49;;;;;;;2.87;2.53;;;1.10;99.90;;;;;;5016449;28;20447;-49
2023/03/28 01:15:16;;;;;;;2.33;1.70;;;1.10;99.90;;;;;;5016878;28;20874;-50
2023/03/28 01:17:46;;;;;;;2.97;2.27;;;1.00;99.90;;;;;;5015840;28;20471;-50
2023/03/28 01:20:41;;;;;;;3.33;2.10;;;1.10;99.90;;;;;;5016459;28;20523;-50
2023/03/28 01:23:44;;;;;;;2.20;1.77;;;1.10;99.90;;;;;;5016661;28;20977;-50
2023/03/28 01:26:39;;;;;;;2.13;1.93;;;1.00;99.90;;;;;;5016586;28;20562;-49
2023/03/28 01:29:40;;;;;;;2.40;1.97;;;0.90;99.90;;;;;;5007811;28;20443;-49
2023/03/28 01:32:43;;;;;;;1.93;1.83;;;0.90;99.90;;;;;;5008666;28;20851;-50
2023/03/28 01:35:53;;;;;;;3.03;2.13;;;0.70;99.90;;;;;;5012585;28;20997;-49
2023/03/28 01:38:29;;;;;;;2.60;2.40;;;1.00;99.90;;;;;;4981591;28;20440;-50
2023/03/28 01:41:03;;;;;;;2.50;2.30;;;1.20;99.90;;;;;;5016428;28;20908;-50
2023/03/28 01:43:40;;;;;;;3.20;2.23;;;1.10;99.90;;;;;;5015971;28;20462;-50
2023/03/28 01:46:13;;;;;;;2.57;2.17;;;1.00;99.90;;;;;;5016273;28;20585;-50
2023/03/28 01:48:52;;;;;;;3.77;2.50;;;1.10;99.90;;;;;;5016230;28;21026;-49
2023/03/28 01:51:26;;;;;;;3.87;2.40;;;1.30;99.90;;;;;;5011983;28;20472;-50
2023/03/28 01:53:58;;;;;;;2.50;2.30;;;1.50;99.90;;;;;;5011843;28;20539;-50
2023/03/28 01:56:31;;;;;;;3.17;2.33;;;1.50;99.90;;;;;;5013461;28;20522;-49
2023/03/28 01:59:05;;;;;;;2.53;2.33;;;1.10;99.90;;;;;;5004463;28;20476;-50
2023/03/28 02:01:38;;;;;;;7.80;4.30;;;1.20;99.90;;;;;;4995024;28;20761;-50
2023/03/28 02:04:08;;;;;;;4.83;3.03;;;1.50;99.90;;;;;;5013517;28;21040;-50
2023/03/28 02:06:38;;;;;;;3.40;2.50;;;1.70;99.90;;;;;;5015400;28;20503;-51
2023/03/28 02:09:09;;;;;;;2.27;2.07;;;1.50;99.90;;;;;;5014691;28;20459;-51
2023/03/28 02:11:37;;;;;;;2.90;2.50;;;1.30;99.90;;;;;;5014583;28;20532;-51
2023/03/28 02:14:09;;;;;;;3.47;2.97;;;1.40;99.90;;;;;;5014232;28;20506;-50
2023/03/28 02:16:41;;;;;;;2.80;2.20;;;1.40;99.90;;;;;;5015084;28;20475;-50
2023/03/28 02:19:10;;;;;;;2.40;2.17;;;1.40;99.90;;;;;;5015207;28;20451;-50
2023/03/28 02:21:42;;;;;;;2.80;1.97;;;1.50;99.90;;;;;;5014420;28;20459;-51
2023/03/28 02:24:12;;;;;;;3.20;1.87;;;1.60;99.90;;;;;;5014940;28;20982;-50
2023/03/28 02:26:39;;;;;;;2.60;2.03;;;1.80;99.90;;;;;;5015732;28;20483;-51
2023/03/28 02:29:08;;;;;;;2.73;2.53;;;1.50;99.90;;;;;;5014734;28;20451;-50
2023/03/28 02:31:35;;;;;;;2.57;2.30;;;1.10;99.90;;;;;;5015446;28;20444;-50
2023/03/28 02:34:03;;;;;;;2.27;1.90;;;1.10;99.90;;;;;;5015367;28;20547;-50
2023/03/28 02:36:51;;;;;;;3.73;2.33;;;1.10;99.90;;;;;;5015053;28;20442;-50
2023/03/28 02:39:38;;;;;;;1.80;1.70;;;1.20;99.90;;;;;;5010282;28;20817;-51
2023/03/28 02:42:40;;;;;;;2.57;2.23;;;1.30;99.90;;;;;;5011099;28;20475;-51
2023/03/28 02:45:30;;;;;;;2.40;2.13;;;1.30;99.90;;;;;;5008254;28;20505;-49
2023/03/28 02:48:09;;;;;;;3.20;1.77;;;1.30;99.90;;;;;;5014152;28;20526;-50
2023/03/28 02:50:44;;;;;;;2.60;2.27;;;1.20;99.90;;;;;;5014039;28;20447;-50
2023/03/28 02:53:15;;;;;;;2.10;1.80;;;1.10;99.90;;;;;;5014211;28;20534;-50
2023/03/28 02:55:53;;;;;;;2.50;2.10;;;1.30;99.90;;;;;;5014409;28;20506;-50
2023/03/28 02:58:26;;;;;;;2.57;2.37;;;1.10;99.90;;;;;;4995531;28;20448;-49
2023/03/28 03:00:53;;;;;;;2.20;1.93;;;1.40;99.90;;;;;;4994827;28;20476;-50
2023/03/28 03:03:20;;;;;;;2.13;1.93;;;1.30;99.90;;;;;;4994775;28;20512;-51
2023/03/28 03:05:47;;;;;;;2.83;2.17;;;1.30;99.90;;;;;;4995274;28;20563;-50
2023/03/28 03:08:14;;;;;;;3.20;2.07;;;1.20;99.90;;;;;;5001419;28;20514;-50
2023/03/28 03:10:42;;;;;;;1.97;1.80;;;1.10;99.90;;;;;;5014991;28;20486;-50
2023/03/28 03:13:09;;;;;;;2.47;2.20;;;1.10;99.90;;;;;;5013628;28;20997;-49
2023/03/28 03:15:36;;;;;;;6.30;2.37;;;0.90;99.90;;;;;;5014914;28;20904;-50
2023/03/28 03:18:04;;;;;;;2.50;2.30;;;1.30;99.90;;;;;;5014964;28;20777;-50
2023/03/28 03:20:32;;;;;;;2.40;2.20;;;1.00;99.90;;;;;;5014021;28;20444;-50
2023/03/28 03:22:59;;;;;;;2.73;2.40;;;0.90;99.90;;;;;;5014097;28;20443;-50
2023/03/28 03:25:27;;;;;;;3.00;2.60;;;1.00;99.90;;;;;;5014526;28;20499;-50
2023/03/28 03:27:55;;;;;;;3.63;2.60;;;1.00;99.90;;;;;;5014437;28;20570;-50
2023/03/28 03:30:22;;;;;;;2.83;2.40;;;1.10;99.90;;;;;;5014153;28;20961;-51
2023/03/28 03:32:49;;;;;;;2.00;1.80;;;1.20;99.90;;;;;;5014834;28;20981;-50
2023/03/28 03:35:16;;;;;;;2.80;2.60;;;1.30;99.90;;;;;;5011817;28;20475;-50
2023/03/28 03:37:43;;;;;;;2.80;2.20;;;1.10;99.90;;;;;;5022790;28;20505;-50
2023/03/28 03:40:10;;;;;;;2.33;2.13;;;1.20;99.90;;;;;;5017165;28;20467;-49
2023/03/28 03:42:37;;;;;;;3.27;2.97;;;0.80;99.90;;;;;;5027794;28;20877;-51
2023/03/28 03:45:07;;;;;;;2.80;2.27;;;1.00;99.90;;;;;;5025726;28;20901;-51
2023/03/28 03:47:34;;;;;;;2.93;2.60;;;1.00;99.90;;;;;;5017689;28;20475;-50
2023/03/28 03:50:01;;;;;;;3.43;2.90;;;1.10;99.90;;;;;;5017661;28;20526;-49
2023/03/28 03:52:28;;;;;;;3.23;1.90;;;1.40;99.90;;;;;;5018536;28;20478;-50
2023/03/28 03:54:55;;;;;;;3.67;2.60;;;1.30;99.90;;;;;;5017963;28;20523;-50
2023/03/28 03:57:22;;;;;;;2.37;2.17;;;1.20;99.90;;;;;;5018318;28;20482;-51
2023/03/28 03:59:48;;;;;;;3.63;2.30;;;1.20;99.90;;;;;;5017295;28;21013;-49
2023/03/28 04:02:17;;;;;;;2.60;2.20;;;1.30;99.90;;;;;;5017843;28;20641;-51
2023/03/28 04:04:44;;;;;;;3.17;2.97;;;1.40;99.90;;;;;;5025325;28;20555;-51
2023/03/28 04:07:11;;;;;;;3.10;2.43;;;1.50;99.90;;;;;;5017377;28;20479;-51
2023/03/28 04:09:38;;;;;;;2.70;2.50;;;1.50;99.90;;;;;;5016576;28;20897;-51
2023/03/28 04:12:06;;;;;;;2.80;2.50;;;1.50;99.90;;;;;;5016236;28;20471;-49
2023/03/28 04:14:33;;;;;;;3.90;3.50;;;1.30;99.90;;;;;;5018230;28;20464;-51
2023/03/28 04:17:00;;;;;;;3.53;2.70;;;1.30;99.90;;;;;;5017624;28;20881;-49
2023/03/28 04:19:29;;;;;;;2.90;2.03;;;1.30;99.90;;;;;;5017800;28;20881;-49
2023/03/28 04:21:56;;;;;;;2.63;2.10;;;1.20;99.90;;;;;;5017258;28;20527;-49
2023/03/28 04:24:24;;;;;;;2.67;2.20;;;1.20;99.90;;;;;;5017433;28;20812;-49
2023/03/28 04:26:54;;;;;;;2.80;2.40;;;1.00;99.90;;;;;;5010513;28;21033;-49
2023/03/28 04:29:29;;;;;;;3.00;2.53;;;1.30;99.90;;;;;;5015288;28;20443;-49
2023/03/28 04:31:57;;;;;;;2.20;2.00;;;1.20;99.90;;;;;;5017719;28;20462;-50
2023/03/28 04:34:28;;;;;;;6.20;3.00;;;1.00;99.90;;;;;;5016972;28;20832;-50
2023/03/28 04:37:00;;;;;;;3.27;2.47;;;1.20;99.90;;;;;;5017401;28;20466;-51
2023/03/28 04:39:28;;;;;;;2.50;2.30;;;1.20;99.90;;;;;;5013837;28;20443;-50
2023/03/28 04:41:54;;;;;;;11.10;8.10;;;0.90;99.90;;;;;;5014734;28;21113;-50
2023/03/28 04:44:21;;;;;;;7.97;7.27;;;0.90;99.90;;;;;;5014174;28;20503;-50
2023/03/28 04:46:49;;;;;;;3.50;3.00;;;1.00;99.90;;;;;;5013072;28;21015;-50
2023/03/28 04:49:16;;;;;;;3.90;3.30;;;1.00;99.90;;;;;;5014881;28;20815;-50
2023/03/28 04:51:44;;;;;;;2.80;2.50;;;1.30;99.90;;;;;;5013265;28;20889;-50
2023/03/28 04:54:12;;;;;;;2.83;2.57;;;1.20;99.90;;;;;;5011429;28;20475;-50
2023/03/28 04:56:39;;;;;;;3.13;2.70;;;1.20;99.90;;;;;;5013700;28;20523;-50
2023/03/28 04:59:07;;;;;;;15.80;9.47;;;1.40;99.90;;;;;;4997027;28;20452;-49
2023/03/28 05:01:34;;;;;;;7.17;4.90;;;1.40;99.90;;;;;;5011996;28;20439;-49
2023/03/28 05:04:01;;;;;;;3.80;3.50;;;1.10;99.90;;;;;;5011184;28;20986;-48
2023/03/28 05:06:28;;;;;;;3.03;2.73;;;1.20;99.90;;;;;;5018254;28;20949;-50
2023/03/28 05:08:56;;;;;;;4.30;3.40;;;1.30;99.90;;;;;;5019388;28;20499;-50
2023/03/28 05:11:24;;;;;;;4.30;3.97;;;1.10;99.90;;;;;;5018854;28;20825;-50
2023/03/28 05:13:51;;;;;;;7.37;5.90;;;1.30;99.90;;;;;;5014496;28;21272;-50
2023/03/28 05:16:18;;;;;;;8.70;7.90;;;1.20;99.90;;;;;;5007962;28;20439;-49
2023/03/28 05:18:46;;;;;;;10.80;9.93;;;1.30;99.90;;;;;;5012496;28;20479;-50
2023/03/28 05:21:13;;;;;;;5.73;5.23;;;1.20;99.90;;;;;;5009513;28;20447;-49
2023/03/28 05:23:39;;;;;;;3.27;2.97;;;1.10;99.90;;;;;;5012685;28;20476;-50
2023/03/28 05:26:07;;;;;;;3.60;2.70;;;1.20;99.90;;;;;;5027994;28;20474;-50
2023/03/28 05:28:35;;;;;;;5.30;4.57;;;1.30;99.90;;;;;;5018475;28;20479;-49
2023/03/28 05:31:05;;;;;;;4.37;3.60;;;1.30;99.90;;;;;;5021707;28;20453;-50
2023/03/28 05:33:32;;;;;;;5.40;4.80;;;1.30;99.90;;;;;;5017604;28;20501;-49
2023/03/28 05:36:00;;;;;;;12.17;11.07;;;1.40;99.90;;;;;;5019903;28;20886;-50
2023/03/28 05:38:28;;;;;;;11.43;10.33;;;1.40;99.90;;;;;;5026717;28;20439;-50
2023/03/28 05:40:55;;;;;;;5.70;5.10;;;1.50;99.90;;;;;;5032214;28;20439;-50
2023/03/28 05:43:22;;;;;;;11.07;9.03;;;1.50;99.90;;;;;;5033124;28;20542;-51
2023/03/28 05:45:50;;;;;;;7.03;5.00;;;1.20;99.90;;;;;;5026517;28;20535;-50
2023/03/28 05:48:17;;;;;;;4.60;3.30;;;1.10;99.90;;;;;;5036410;28;20474;-50
2023/03/28 05:50:44;;;;;;;4.00;3.60;;;1.20;99.90;;;;;;5029189;28;20499;-50
2023/03/28 05:53:11;;;;;;;3.60;3.10;;;1.20;99.90;;;;;;5025926;28;20468;-50
2023/03/28 05:55:39;;;;;;;4.70;3.40;;;1.20;99.90;;;;;;5023229;28;20989;-50
2023/03/28 05:58:06;;;;;;;2.93;2.67;;;1.10;99.90;;;;;;5033114;28;20517;-50
2023/03/28 06:00:33;;;;;;;4.17;3.23;;;1.10;99.90;;;;;;5035643;28;20443;-50
2023/03/28 06:03:02;;;;;;;7.30;6.53;;;1.20;99.90;;;;;;5035480;28;20471;-49
2023/03/28 06:05:29;;;;;;;4.53;4.13;;;1.20;99.90;;;;;;5034198;28;20470;-49
2023/03/28 06:07:56;;;;;;;3.50;3.20;;;1.10;99.90;;;;;;5035693;28;20491;-50
2023/03/28 06:10:23;;;;;;;3.90;3.00;;;1.10;99.90;;;;;;5035907;28;20526;-49
2023/03/28 06:12:49;;;;;;;4.30;3.90;;;1.00;99.90;;;;;;5035271;28;20453;-50
2023/03/28 06:15:16;;;;;;;5.30;4.23;;;1.00;99.90;;;;;;5035603;28;20490;-49
2023/03/28 06:17:43;;;;;;;5.00;3.90;;;1.00;99.90;;;;;;5035614;28;20874;-50
2023/03/28 06:20:12;;;;;;;3.83;3.50;;;1.00;99.90;;;;;;5035388;28;20522;-50
2023/03/28 06:22:40;;;;;;;7.27;4.30;;;1.10;99.90;;;;;;5035951;28;20581;-50
2023/03/28 06:25:07;;;;;;;4.80;3.30;;;1.20;99.90;;;;;;5035332;28;20974;-49
2023/03/28 06:27:35;;;;;;;3.93;3.60;;;1.10;99.90;;;;;;5035298;28;20542;-49
2023/03/28 06:30:03;;;;;;;4.40;4.00;;;1.20;99.90;;;;;;5035346;28;20449;-50
2023/03/28 06:32:30;;;;;;;6.97;4.07;;;1.20;99.90;;;;;;5035456;28;20439;-49
2023/03/28 06:34:57;;;;;;;4.00;3.53;;;1.20;99.90;;;;;;5034777;28;20470;-50
2023/03/28 06:37:25;;;;;;;3.50;2.83;;;1.60;99.90;;;;;;5034510;28;20510;-50
2023/03/28 06:39:53;;;;;;;2.53;2.33;;;1.30;99.90;;;;;;5034458;28;20447;-49
2023/03/28 06:42:20;;;;;;;2.70;2.50;;;1.30;99.90;;;;;;5035526;28;20443;-50
2023/03/28 06:44:48;;;;;;;6.80;2.53;;;1.10;99.90;;;;;;5062879;23;20468;-88
2023/03/28 06:47:15;;;;;;;3.10;2.50;;;1.10;99.90;;;;;;5118753;28;20389;-89
2023/03/28 06:49:46;;;;;;;4.87;2.90;;;1.10;99.90;;;;;;5119296;28;20436;-89
2023/03/28 06:52:14;;;;;;;3.90;2.70;;;1.20;99.90;;;;;;5119248;28;20441;-89
2023/03/28 06:54:42;;;;;;;2.60;2.40;;;1.10;99.90;;;;;;5119166;28;20402;-89
2023/03/28 07:09:50;;;;;;;6.20;3.20;;;1.50;99.90;;;;;;5029954;28;20473;-56
2023/03/28 07:12:18;;;;;;;3.13;2.63;;;1.30;99.90;;;;;;5031092;28;20827;-56
2023/03/28 07:14:46;;;;;;;3.03;2.70;;;0.90;99.90;;;;;;5030361;28;20463;-56
2023/03/28 07:17:14;;;;;;;3.37;2.60;;;1.00;99.90;;;;;;5030751;28;20442;-56
2023/03/28 07:19:41;;;;;;;2.80;2.60;;;1.30;99.90;;;;;;5031220;28;20450;-56
2023/03/28 07:22:08;;;;;;;4.80;3.00;;;1.10;99.90;;;;;;5051661;23;20472;-89
2023/03/28 07:24:35;;;;;;;3.67;3.37;;;1.30;99.90;;;;;;5017575;28;20437;-89
2023/03/28 07:27:04;;;;;;;2.70;2.50;;;1.30;99.90;;;;;;5017403;28;20437;-88
2023/03/28 07:29:31;;;;;;;3.03;2.40;;;1.20;99.90;;;;;;5017724;28;20527;-89
2023/03/28 07:31:59;;;;;;;2.50;2.30;;;1.20;99.90;;;;;;5017325;28;20480;-90
2023/03/28 07:34:26;;;;;;;4.43;3.40;;;1.40;99.90;;;;;;5017456;28;20475;-87
2023/03/28 07:36:53;;;;;;;5.07;4.13;;;1.70;99.90;;;;;;5030092;23;20566;-50
2023/03/28 07:39:20;;;;;;;4.83;3.87;;;1.80;99.90;;;;;;5010832;28;20967;-50
2023/03/28 07:41:47;;;;;;;3.60;3.00;;;1.60;99.90;;;;;;5011378;28;20463;-49
2023/03/28 07:44:15;;;;;;;3.47;3.13;;;1.60;99.90;;;;;;5012473;28;20475;-50
2023/03/28 07:46:42;;;;;;;3.40;3.10;;;1.70;99.90;;;;;;5012028;28;20485;-54
2023/03/28 07:49:09;;;;;;;3.80;3.50;;;1.70;99.90;;;;;;5014378;28;21056;-50
2023/03/28 07:51:36;;;;;;;2.83;2.63;;;1.70;99.90;;;;;;5013912;28;20476;-50
2023/03/28 07:54:04;;;;;;;3.50;3.20;;;1.80;99.90;;;;;;5013608;28;20535;-50
2023/03/28 07:56:31;;;;;;;4.70;3.37;;;1.70;99.90;;;;;;5013538;28;20518;-50
2023/03/28 07:59:00;;;;;;;3.10;2.80;;;1.80;99.90;;;;;;5013721;28;20522;-51
2023/03/28 08:01:29;;;;;;;4.23;3.27;;;1.70;99.90;;;;;;5013976;28;20492;-52
2023/03/28 08:03:55;;;;;;;3.93;3.13;;;1.60;99.90;;;;;;5013720;28;20440;-50
2023/03/28 08:06:24;;;;;;;5.70;3.50;;;1.90;99.90;;;;;;5013030;28;21021;-51
2023/03/28 08:08:51;;;;;;;3.77;3.07;;;2.00;99.90;;;;;;5013332;28;20471;-51
2023/03/28 08:11:18;;;;;;;2.87;2.60;;;1.80;99.90;;;;;;5013664;28;20458;-50
2023/03/28 08:13:45;;;;;;;4.03;3.67;;;1.60;99.90;;;;;;5013485;28;20450;-51
2023/03/28 08:16:12;;;;;;;5.30;3.20;;;1.60;99.90;;;;;;5013765;28;20535;-51
2023/03/28 08:18:40;;;;;;;3.43;3.13;;;1.70;99.90;;;;;;5014369;28;20522;-49
2023/03/28 08:21:07;;;;;;;5.20;3.43;;;1.90;99.90;;;;;;5013215;28;20479;-50
2023/03/28 08:23:35;;;;;;;3.83;3.43;;;2.00;99.90;;;;;;5012969;28;20804;-50
2023/03/28 08:26:04;;;;;;;4.30;3.13;;;1.90;99.90;;;;;;5013600;28;20530;-51
2023/03/28 08:28:33;;;;;;;4.10;3.70;;;1.70;99.90;;;;;;5017008;28;21046;-49
2023/03/28 08:31:00;;;;;;;4.83;3.30;;;1.80;99.90;;;;;;5017383;28;20530;-50
2023/03/28 08:33:28;;;;;;;4.30;3.90;;;1.70;99.90;;;;;;5017214;28;20467;-50
2023/03/28 08:35:56;;;;;;;5.23;4.27;;;1.80;99.90;;;;;;5016780;28;20455;-51
2023/03/28 08:38:23;;;;;;;4.17;3.77;;;1.60;99.90;;;;;;5016870;28;20481;-50
2023/03/28 08:41:00;;;;;;;4.43;4.03;;;1.60;99.90;;;;;;5017066;28;20490;-51
2023/03/28 08:43:54;;;;;;;4.70;3.53;;;1.60;99.90;;;;;;5016801;28;20811;-50
2023/03/28 08:46:24;;;;;;;4.77;4.10;;;1.60;99.90;;;;;;5015349;28;20956;-50
2023/03/28 08:48:53;;;;;;;3.70;3.40;;;1.60;99.90;;;;;;5017117;28;20994;-50
2023/03/28 08:51:26;;;;;;;3.57;3.23;;;1.70;99.90;;;;;;5016430;28;20998;-50
2023/03/28 08:54:00;;;;;;;4.97;3.87;;;1.70;99.90;;;;;;5016348;28;20486;-50
2023/03/28 08:56:28;;;;;;;4.13;3.73;;;1.70;99.90;;;;;;5015843;28;20443;-54
2023/03/28 08:59:05;;;;;;;4.13;3.40;;;1.70;99.90;;;;;;5015611;28;20447;-49
2023/03/28 09:01:33;;;;;;;3.90;3.60;;;1.80;99.90;;;;;;5016019;28;20510;-50
2023/03/28 09:04:00;;;;;;;5.13;3.87;;;2.00;99.90;;;;;;5016432;28;20475;-52
2023/03/28 09:06:37;;;;;;;4.03;3.63;;;2.10;99.90;;;;;;5016563;28;20530;-50
2023/03/28 09:09:19;;;;;;;4.03;3.60;;;2.20;99.90;;;;;;5016258;28;20483;-52
2023/03/28 09:11:58;;;;;;;5.30;3.33;;;2.50;99.90;;;;;;5016115;28;20758;-51
2023/03/28 09:14:51;;;;;;;3.90;2.90;;;2.60;99.90;;;;;;5015655;28;20443;-52
2023/03/28 09:17:23;;;;;;;3.40;3.10;;;2.40;99.90;;;;;;5016449;28;20526;-51
2023/03/28 09:20:10;;;;;;;3.87;3.03;;;2.20;99.90;;;;;;5016345;28;20472;-52
2023/03/28 09:22:46;;;;;;;3.67;3.37;;;2.40;99.90;;;;;;5015554;28;20471;-53
2023/03/28 09:25:31;;;;;;;3.00;2.70;;;2.80;99.90;;;;;;5014953;28;20534;-53
2023/03/28 09:28:06;;;;;;;3.70;3.33;;;2.80;99.90;;;;;;5015897;28;20452;-51
2023/03/28 09:30:37;;;;;;;3.83;3.43;;;3.00;99.90;;;;;;5016292;28;20483;-54
2023/03/28 09:33:10;;;;;;;5.60;2.80;;;3.00;99.90;;;;;;5016393;28;20587;-50
2023/03/28 09:35:40;;;;;;;3.60;2.60;;;2.80;99.90;;;;;;5014963;28;20447;-51
2023/03/28 09:38:17;;;;;;;3.73;3.00;;;2.70;99.90;;;;;;5014967;28;20921;-50
2023/03/28 09:40:46;;;;;;;3.03;2.73;;;2.70;99.90;;;;;;5016604;28;20530;-50
2023/03/28 09:43:19;;;;;;;3.20;2.87;;;2.70;99.90;;;;;;5016284;28;20546;-51
2023/03/28 09:45:53;;;;;;;3.67;2.93;;;2.90;99.90;;;;;;5014966;28;20476;-54
2023/03/28 09:48:23;;;;;;;2.73;2.50;;;3.10;99.90;;;;;;5015642;28;20482;-52
2023/03/28 09:50:51;;;;;;;2.53;2.33;;;3.10;99.90;;;;;;5014568;28;20447;-51
2023/03/28 09:53:23;;;;;;;2.57;2.37;;;3.20;99.90;;;;;;5014612;28;20483;-51
2023/03/28 09:55:51;;;;;;;4.00;3.17;;;3.50;99.90;;;;;;5015449;28;20443;-51
2023/03/28 09:58:18;;;;;;;2.33;2.13;;;3.80;99.90;;;;;;5015831;28;20532;-51
2023/03/28 10:00:49;;;;;;;3.10;2.23;;;3.50;99.90;;;;;;5014935;28;20535;-50
2023/03/28 10:03:21;;;;;;;2.73;2.53;;;3.50;99.90;;;;;;5014912;28;20470;-50
2023/03/28 10:05:50;;;;;;;2.03;1.83;;;3.90;99.90;;;;;;5016247;28;20455;-53
2023/03/28 10:08:28;;;;;;;2.27;2.07;;;4.20;99.90;;;;;;5016335;28;20449;-53
2023/03/28 10:11:03;;;;;;;2.30;2.00;;;4.30;99.90;;;;;;5016099;28;20576;-54
2023/03/28 10:13:36;;;;;;;2.60;2.33;;;4.20;99.90;;;;;;5015838;28;20492;-51
2023/03/28 10:16:05;;;;;;;3.70;2.63;;;4.50;99.90;;;;;;5015863;28;20445;-54
2023/03/28 10:18:32;;;;;;;2.50;1.97;;;4.70;99.90;;;;;;5015808;28;20436;-50
2023/03/28 10:21:09;;;;;;;3.43;1.70;;;4.60;99.90;;;;;;5015815;28;20885;-55
2023/03/28 10:23:40;;;;;;;3.00;2.00;;;4.60;99.90;;;;;;5016032;28;21008;-52
2023/03/28 10:26:11;;;;;;;2.13;2.00;;;4.60;99.90;;;;;;5015712;28;21019;-51
2023/03/28 10:28:38;;;;;;;4.97;1.93;;;4.50;99.90;;;;;;5014235;28;20528;-52
2023/03/28 10:31:07;;;;;;;2.40;1.43;;;4.70;99.90;;;;;;5012012;28;20555;-50
2023/03/28 10:33:35;;;;;;;2.00;1.80;;;4.70;99.90;;;;;;5012473;28;20827;-52
2023/03/28 10:36:05;;;;;;;2.93;1.50;;;4.90;99.90;;;;;;5008639;28;20482;-51
2023/03/28 10:38:36;;;;;;;2.70;1.60;;;4.70;99.90;;;;;;5004611;28;20445;-51
2023/03/28 10:41:09;;;;;;;2.97;1.80;;;4.70;99.90;;;;;;5005382;28;20447;-52
2023/03/28 10:43:38;;;;;;;2.27;2.07;;;5.00;99.90;;;;;;5004650;28;20924;-51
2023/03/28 10:46:14;;;;;;;2.30;1.87;;;5.00;99.90;;;;;;5004108;28;20532;-51
2023/03/28 10:48:46;;;;;;;4.00;1.60;;;5.00;99.90;;;;;;4995419;28;20509;-53
2023/03/28 10:51:17;;;;;;;2.20;2.00;;;5.20;99.90;;;;;;4994015;28;21040;-53
2023/03/28 10:54:12;;;;;;;3.03;2.17;;;5.20;99.90;;;;;;4994957;28;20442;-50
2023/03/28 10:56:51;;;;;;;2.10;1.90;;;5.30;99.90;;;;;;4994452;28;20864;-53
2023/03/28 10:59:45;;;;;;;2.13;1.80;;;5.10;99.90;;;;;;4995928;28;20450;-52
2023/03/28 11:02:40;;;;;;;3.80;2.30;;;5.00;99.90;;;;;;5000642;28;20472;-51
2023/03/28 11:05:30;;;;;;;2.47;1.83;;;5.20;99.90;;;;;;5004715;28;20959;-52
2023/03/28 11:08:06;;;;;;;3.73;2.00;;;5.70;99.90;;;;;;4992198;28;20454;-51
2023/03/28 11:10:44;;;;;;;1.77;1.67;;;5.80;99.90;;;;;;5003633;28;21094;-51
2023/03/28 11:13:26;;;;;;;3.70;1.80;;;5.80;99.90;;;;;;5003444;28;20467;-51
2023/03/28 11:15:58;;;;;;;1.70;1.40;;;5.70;99.90;;;;;;5003035;28;20462;-52
2023/03/28 11:18:42;;;;;;;1.80;1.70;;;5.80;99.90;;;;;;5002339;28;20468;-53
2023/03/28 11:21:20;;;;;;;2.67;2.17;;;6.10;99.90;;;;;;5003396;28;20479;-51
2023/03/28 11:23:52;;;;;;;3.30;1.93;;;6.10;99.90;;;;;;4992536;28;20833;-52
2023/03/28 11:26:25;;;;;;;3.43;1.47;;;6.20;99.90;;;;;;4992026;28;20440;-51
2023/03/28 11:29:04;;;;;;;3.30;1.67;;;6.30;99.90;;;;;;4992622;28;20476;-51
2023/03/28 11:31:36;;;;;;;1.87;1.67;;;5.90;99.90;;;;;;4994466;28;20550;-52
2023/03/28 11:34:10;;;;;;;1.67;1.57;;;5.60;99.90;;;;;;4995104;28;20478;-54
2023/03/28 11:36:41;;;;;;;1.83;1.60;;;5.30;99.90;;;;;;4995156;28;20545;-51
2023/03/28 11:39:18;;;;;;;1.90;1.80;;;5.50;99.90;;;;;;4993060;28;21001;-51
2023/03/28 11:41:48;;;;;;;2.40;1.93;;;5.80;99.90;;;;;;4992885;28;20537;-53
2023/03/28 11:44:22;;;;;;;2.20;1.97;;;5.90;99.90;;;;;;4993052;28;20471;-51
2023/03/28 11:46:54;;;;;;;2.20;1.83;;;6.00;99.90;;;;;;4992269;28;20510;-55
2023/03/28 11:49:27;;;;;;;1.63;1.53;;;6.20;99.90;;;;;;4992580;28;20488;-51
2023/03/28 11:52:01;;;;;;;2.27;2.03;;;6.40;99.90;;;;;;4992541;28;20478;-52
2023/03/28 11:54:33;;;;;;;2.03;1.83;;;6.50;99.90;;;;;;4991659;28;21166;-54
2023/03/28 11:57:06;;;;;;;3.73;2.17;;;6.50;99.90;;;;;;4989534;28;20908;-53
2023/03/28 11:59:43;;;;;;;1.90;1.77;;;6.60;99.90;;;;;;4992149;28;20480;-52
2023/03/28 12:02:22;;;;;;;1.70;1.60;;;6.60;99.90;;;;;;4993964;28;20850;-51
2023/03/28 12:04:57;;;;;;;2.60;2.00;;;6.70;99.90;;;;;;4994160;28;20788;-54
2023/03/28 12:07:31;;;;;;;1.63;1.50;;;6.70;99.90;;;;;;4995100;28;20514;-52
2023/03/28 12:10:07;;;;;;;2.70;1.97;;;6.70;99.90;;;;;;4995404;28;20569;-53
2023/03/28 12:12:43;;;;;;;1.90;1.70;;;6.90;99.90;;;;;;4995301;28;20487;-52
2023/03/28 12:15:16;;;;;;;2.00;1.80;;;6.90;99.90;;;;;;4996042;28;20498;-51
2023/03/28 12:17:46;;;;;;;1.80;1.50;;;6.90;99.90;;;;;;4995917;28;20539;-53
2023/03/28 12:20:27;;;;;;;4.73;2.37;;;7.00;99.90;;;;;;4995363;28;20498;-52
2023/03/28 12:22:58;;;;;;;2.00;1.80;;;6.80;99.90;;;;;;4995306;28;20468;-52
2023/03/28 12:25:32;;;;;;;2.13;1.80;;;6.90;99.90;;;;;;4994783;28;20479;-54
2023/03/28 12:28:09;;;;;;;1.97;1.60;;;6.80;99.90;;;;;;4996387;28;20449;-55
2023/03/28 12:30:44;;;;;;;2.80;2.20;;;6.70;99.90;;;;;;4995617;28;20851;-54
2023/03/28 12:33:20;;;;;;;2.27;1.97;;;6.90;99.90;;;;;;4995914;28;20468;-52
2023/03/28 12:35:52;;;;;;;2.33;2.00;;;6.80;99.90;;;;;;4995706;28;20444;-52
2023/03/28 12:38:29;;;;;;;2.13;1.80;;;6.90;99.90;;;;;;4995777;28;20447;-51
2023/03/28 12:41:00;;;;;;;1.83;1.50;;;6.70;99.90;;;;;;4995684;28;20827;-52
2023/03/28 12:43:36;;;;;;;2.97;2.17;;;6.80;99.90;;;;;;4995912;28;20468;-51
2023/03/28 12:46:07;;;;;;;1.87;1.60;;;6.80;99.90;;;;;;4995464;28;20530;-51
2023/03/28 12:48:39;;;;;;;1.70;1.40;;;6.90;99.90;;;;;;4996090;28;20543;-51
2023/03/28 12:51:12;;;;;;;2.03;1.23;;;6.80;99.90;;;;;;4995445;28;21032;-54
2023/03/28 12:53:46;;;;;;;1.90;1.70;;;6.80;99.90;;;;;;4995264;28;20530;-52
2023/03/28 12:56:15;;;;;;;1.77;1.57;;;6.70;99.90;;;;;;4995536;28;20439;-53
2023/03/28 12:58:45;;;;;;;2.00;1.80;;;6.90;99.90;;;;;;4994549;28;20448;-52
2023/03/28 13:01:42;;;;;;;6.53;4.10;;;6.90;99.90;;;;;;4995368;28;20865;-54
2023/03/28 13:04:17;;;;;;;1.97;1.87;;;6.80;99.90;;;;;;4982773;28;20452;-53
2023/03/28 13:06:51;;;;;;;1.73;1.63;;;7.00;99.90;;;;;;4993979;28;20436;-54
2023/03/28 13:09:52;;;;;;;2.20;1.50;;;7.10;99.90;;;;;;4993881;28;20439;-52
2023/03/28 13:12:29;;;;;;;2.20;1.73;;;6.70;99.90;;;;;;4993626;28;20468;-54
2023/03/28 13:15:00;;;;;;;2.37;1.53;;;6.40;99.90;;;;;;4994207;28;20456;-52
2023/03/28 13:17:31;;;;;;;2.00;1.77;;;6.50;99.90;;;;;;4995365;28;20445;-51
2023/03/28 13:20:08;;;;;;;2.70;1.30;;;6.70;99.90;;;;;;4995286;28;20448;-51
2023/03/28 13:22:41;;;;;;;4.20;1.53;;;6.60;99.70;;;;;;4993919;28;20475;-51
2023/03/28 13:25:33;;;;;;;1.80;1.60;;;6.50;99.90;;;;;;4992682;28;20858;-51
2023/03/28 13:28:21;;;;;;;2.17;1.97;;;6.90;99.90;;;;;;4979277;28;20539;-55
2023/03/28 13:31:05;;;;;;;1.67;1.57;;;7.00;99.90;;;;;;4994375;28;20725;-51
2023/03/28 13:33:36;;;;;;;1.83;1.60;;;6.90;99.90;;;;;;4994302;28;20491;-51